sensor_id;sensor_type;location;lat;lon;timestamp;temperature;humidity
64888;DHT22;51386;53.082;8.816;2023-04-25T00:00:22;11.10;81.10
64888;DHT22;51386;53.082;8.816;2023-04-25T00:02:49;11.10;79.80
64888;DHT22;51386;53.082;8.816;2023-04-25T00:05:17;11.10;79.80
64888;DHT22;51386;53.082;8.816;2023-04-25T00:07:44;11.10;78.60
64888;DHT22;51386;53.082;8.816;2023-04-25T00:10:12;11.00;78.00
64888;DHT22;51386;53.082;8.816;2023-04-25T00:12:40;11.10;77.50
64888;DHT22;51386;53.082;8.816;2023-04-25T00:15:08;11.10;77.70
64888;DHT22;51386;53.082;8.816;2023-04-25T00:17:36;11.10;78.00
64888;DHT22;51386;53.082;8.816;2023-04-25T00:20:06;11.10;78.00
64888;DHT22;51386;53.082;8.816;2023-04-25T00:22:36;11.10;78.20
64888;DHT22;51386;53.082;8.816;2023-04-25T00:25:04;11.10;78.80
64888;DHT22;51386;53.082;8.816;2023-04-25T00:27:34;11.20;77.40
64888;DHT22;51386;53.082;8.816;2023-04-25T00:30:00;11.20;76.40
64888;DHT22;51386;53.082;8.816;2023-04-25T00:32:28;11.10;75.40
64888;DHT22;51386;53.082;8.816;2023-04-25T00:34:55;11.10;74.90
64888;DHT22;51386;53.082;8.816;2023-04-25T00:37:24;11.10;75.40
64888;DHT22;51386;53.082;8.816;2023-04-25T00:39:51;11.10;75.10
64888;DHT22;51386;53.082;8.816;2023-04-25T00:42:20;11.10;74.90
64888;DHT22;51386;53.082;8.816;2023-04-25T00:44:49;11.10;74.60
64888;DHT22;51386;53.082;8.816;2023-04-25T00:47:18;11.10;74.70
64888;DHT22;51386;53.082;8.816;2023-04-25T00:49:46;11.10;74.80
64888;DHT22;51386;53.082;8.816;2023-04-25T00:52:13;11.10;74.60
64888;DHT22;51386;53.082;8.816;2023-04-25T00:54:40;11.10;74.70
64888;DHT22;51386;53.082;8.816;2023-04-25T00:57:07;11.00;74.70
64888;DHT22;51386;53.082;8.816;2023-04-25T00:59:35;11.00;74.70
64888;DHT22;51386;53.082;8.816;2023-04-25T01:02:04;11.00;74.80
64888;DHT22;51386;53.082;8.816;2023-04-25T01:04:31;11.00;74.30
64888;DHT22;51386;53.082;8.816;2023-04-25T01:06:58;10.90;73.90
64888;DHT22;51386;53.082;8.816;2023-04-25T01:09:25;10.90;73.90
64888;DHT22;51386;53.082;8.816;2023-04-25T01:11:52;10.90;74.10
64888;DHT22;51386;53.082;8.816;2023-04-25T01:14:19;10.80;73.90
64888;DHT22;51386;53.082;8.816;2023-04-25T01:16:46;10.80;73.60
64888;DHT22;51386;53.082;8.816;2023-04-25T01:19:17;10.80;73.70
64888;DHT22;51386;53.082;8.816;2023-04-25T01:21:46;10.80;73.60
64888;DHT22;51386;53.082;8.816;2023-04-25T01:24:13;10.80;73.50
64888;DHT22;51386;53.082;8.816;2023-04-25T01:26:41;10.80;73.30
64888;DHT22;51386;53.082;8.816;2023-04-25T01:29:16;10.80;72.30
64888;DHT22;51386;53.082;8.816;2023-04-25T01:31:44;10.70;72.00
64888;DHT22;51386;53.082;8.816;2023-04-25T01:34:12;10.70;72.50
64888;DHT22;51386;53.082;8.816;2023-04-25T01:36:40;10.80;71.50
64888;DHT22;51386;53.082;8.816;2023-04-25T01:39:09;10.70;70.80
64888;DHT22;51386;53.082;8.816;2023-04-25T01:41:36;10.70;70.50
64888;DHT22;51386;53.082;8.816;2023-04-25T01:44:04;10.70;69.30
64888;DHT22;51386;53.082;8.816;2023-04-25T01:46:31;10.70;69.80
64888;DHT22;51386;53.082;8.816;2023-04-25T01:48:59;10.70;70.50
64888;DHT22;51386;53.082;8.816;2023-04-25T01:51:26;10.70;70.90
64888;DHT22;51386;53.082;8.816;2023-04-25T01:53:54;10.70;70.60
64888;DHT22;51386;53.082;8.816;2023-04-25T01:56:23;10.70;70.30
64888;DHT22;51386;53.082;8.816;2023-04-25T01:58:49;10.70;70.40
64888;DHT22;51386;53.082;8.816;2023-04-25T02:01:17;10.70;70.20
64888;DHT22;51386;53.082;8.816;2023-04-25T02:03:44;10.60;69.90
64888;DHT22;51386;53.082;8.816;2023-04-25T02:06:11;10.60;69.60
64888;DHT22;51386;53.082;8.816;2023-04-25T02:08:38;10.60;69.90
64888;DHT22;51386;53.082;8.816;2023-04-25T02:11:05;10.60;70.00
64888;DHT22;51386;53.082;8.816;2023-04-25T02:13:33;10.50;70.00
64888;DHT22;51386;53.082;8.816;2023-04-25T02:16:00;10.50;70.30
64888;DHT22;51386;53.082;8.816;2023-04-25T02:18:27;10.50;70.40
64888;DHT22;51386;53.082;8.816;2023-04-25T02:20:55;10.40;70.60
64888;DHT22;51386;53.082;8.816;2023-04-25T02:23:22;10.50;70.80
64888;DHT22;51386;53.082;8.816;2023-04-25T02:25:49;10.40;70.90
64888;DHT22;51386;53.082;8.816;2023-04-25T02:28:16;10.40;71.10
64888;DHT22;51386;53.082;8.816;2023-04-25T02:30:44;10.40;71.30
64888;DHT22;51386;53.082;8.816;2023-04-25T02:33:11;10.30;71.20
64888;DHT22;51386;53.082;8.816;2023-04-25T02:35:38;10.30;71.20
64888;DHT22;51386;53.082;8.816;2023-04-25T02:38:05;10.20;71.10
64888;DHT22;51386;53.082;8.816;2023-04-25T02:40:32;10.20;71.20
64888;DHT22;51386;53.082;8.816;2023-04-25T02:42:59;10.10;71.20
64888;DHT22;51386;53.082;8.816;2023-04-25T02:45:26;10.10;71.20
64888;DHT22;51386;53.082;8.816;2023-04-25T02:47:54;10.10;71.40
64888;DHT22;51386;53.082;8.816;2023-04-25T02:50:21;10.10;72.00
64888;DHT22;51386;53.082;8.816;2023-04-25T02:52:48;10.10;71.50
64888;DHT22;51386;53.082;8.816;2023-04-25T02:55:15;10.00;71.30
64888;DHT22;51386;53.082;8.816;2023-04-25T02:57:42;10.10;70.80
64888;DHT22;51386;53.082;8.816;2023-04-25T03:00:10;10.10;70.00
64888;DHT22;51386;53.082;8.816;2023-04-25T03:02:38;10.10;70.00
64888;DHT22;51386;53.082;8.816;2023-04-25T03:05:07;10.10;69.60
64888;DHT22;51386;53.082;8.816;2023-04-25T03:07:34;10.10;69.50
64888;DHT22;51386;53.082;8.816;2023-04-25T03:10:01;10.00;69.30
64888;DHT22;51386;53.082;8.816;2023-04-25T03:12:28;10.10;69.10
64888;DHT22;51386;53.082;8.816;2023-04-25T03:14:54;10.00;68.80
64888;DHT22;51386;53.082;8.816;2023-04-25T03:17:21;10.10;68.70
64888;DHT22;51386;53.082;8.816;2023-04-25T03:19:48;10.10;69.10
64888;DHT22;51386;53.082;8.816;2023-04-25T03:22:17;10.10;69.20
64888;DHT22;51386;53.082;8.816;2023-04-25T03:24:44;10.10;68.90
64888;DHT22;51386;53.082;8.816;2023-04-25T03:27:11;10.10;68.90
64888;DHT22;51386;53.082;8.816;2023-04-25T03:29:38;10.10;68.70
64888;DHT22;51386;53.082;8.816;2023-04-25T03:32:05;10.10;68.90
64888;DHT22;51386;53.082;8.816;2023-04-25T03:34:32;10.10;68.70
64888;DHT22;51386;53.082;8.816;2023-04-25T03:36:59;10.00;68.60
64888;DHT22;51386;53.082;8.816;2023-04-25T03:39:27;10.00;68.60
64888;DHT22;51386;53.082;8.816;2023-04-25T03:41:54;10.10;68.70
64888;DHT22;51386;53.082;8.816;2023-04-25T03:44:21;10.00;68.60
64888;DHT22;51386;53.082;8.816;2023-04-25T03:46:48;10.00;68.70
64888;DHT22;51386;53.082;8.816;2023-04-25T03:49:16;10.00;68.60
64888;DHT22;51386;53.082;8.816;2023-04-25T03:51:45;10.00;68.80
64888;DHT22;51386;53.082;8.816;2023-04-25T03:54:12;10.00;68.50
64888;DHT22;51386;53.082;8.816;2023-04-25T03:56:40;10.00;68.70
64888;DHT22;51386;53.082;8.816;2023-04-25T03:59:07;10.00;68.30
64888;DHT22;51386;53.082;8.816;2023-04-25T04:01:34;9.90;68.90
64888;DHT22;51386;53.082;8.816;2023-04-25T04:04:01;9.80;68.60
64888;DHT22;51386;53.082;8.816;2023-04-25T04:06:29;9.80;68.50
64888;DHT22;51386;53.082;8.816;2023-04-25T04:08:56;9.80;68.60
64888;DHT22;51386;53.082;8.816;2023-04-25T04:11:23;9.70;68.60
64888;DHT22;51386;53.082;8.816;2023-04-25T04:13:52;9.70;68.80
64888;DHT22;51386;53.082;8.816;2023-04-25T04:16:19;9.60;68.90
64888;DHT22;51386;53.082;8.816;2023-04-25T04:18:46;9.50;69.10
64888;DHT22;51386;53.082;8.816;2023-04-25T04:21:13;9.50;69.90
64888;DHT22;51386;53.082;8.816;2023-04-25T04:23:40;9.50;69.70
64888;DHT22;51386;53.082;8.816;2023-04-25T04:26:07;9.40;69.80
64888;DHT22;51386;53.082;8.816;2023-04-25T04:28:35;9.40;70.00
64888;DHT22;51386;53.082;8.816;2023-04-25T04:31:03;9.30;70.00
64888;DHT22;51386;53.082;8.816;2023-04-25T04:33:30;9.30;70.10
64888;DHT22;51386;53.082;8.816;2023-04-25T04:35:57;9.30;70.40
64888;DHT22;51386;53.082;8.816;2023-04-25T04:38:25;9.30;70.60
64888;DHT22;51386;53.082;8.816;2023-04-25T04:40:52;9.30;70.50
64888;DHT22;51386;53.082;8.816;2023-04-25T04:43:20;9.30;70.20
64888;DHT22;51386;53.082;8.816;2023-04-25T04:45:47;9.30;70.30
64888;DHT22;51386;53.082;8.816;2023-04-25T04:48:16;9.30;70.00
64888;DHT22;51386;53.082;8.816;2023-04-25T04:50:43;9.30;69.70
64888;DHT22;51386;53.082;8.816;2023-04-25T04:53:14;9.30;69.50
64888;DHT22;51386;53.082;8.816;2023-04-25T04:55:41;9.40;69.40
64888;DHT22;51386;53.082;8.816;2023-04-25T04:58:08;9.40;68.80
64888;DHT22;51386;53.082;8.816;2023-04-25T05:00:35;9.40;68.50
64888;DHT22;51386;53.082;8.816;2023-04-25T05:03:02;9.40;68.50
64888;DHT22;51386;53.082;8.816;2023-04-25T05:05:31;9.50;68.70
64888;DHT22;51386;53.082;8.816;2023-04-25T05:07:58;9.40;68.60
64888;DHT22;51386;53.082;8.816;2023-04-25T05:10:25;9.50;68.70
64888;DHT22;51386;53.082;8.816;2023-04-25T05:12:52;9.50;68.70
64888;DHT22;51386;53.082;8.816;2023-04-25T05:15:19;9.50;68.70
64888;DHT22;51386;53.082;8.816;2023-04-25T05:17:46;9.60;68.70
64888;DHT22;51386;53.082;8.816;2023-04-25T05:20:13;9.60;68.60
64888;DHT22;51386;53.082;8.816;2023-04-25T05:22:42;9.60;68.60
64888;DHT22;51386;53.082;8.816;2023-04-25T05:25:09;9.60;68.20
64888;DHT22;51386;53.082;8.816;2023-04-25T05:27:36;9.70;67.90
64888;DHT22;51386;53.082;8.816;2023-04-25T05:30:04;9.70;67.70
64888;DHT22;51386;53.082;8.816;2023-04-25T05:32:32;9.70;67.60
64888;DHT22;51386;53.082;8.816;2023-04-25T05:34:59;9.80;67.50
64888;DHT22;51386;53.082;8.816;2023-04-25T05:37:26;9.80;67.50
64888;DHT22;51386;53.082;8.816;2023-04-25T05:39:55;9.70;67.50
64888;DHT22;51386;53.082;8.816;2023-04-25T05:42:22;9.70;67.80
64888;DHT22;51386;53.082;8.816;2023-04-25T05:44:48;9.70;67.80
64888;DHT22;51386;53.082;8.816;2023-04-25T05:47:15;9.70;67.90
64888;DHT22;51386;53.082;8.816;2023-04-25T05:49:42;9.70;68.00
64888;DHT22;51386;53.082;8.816;2023-04-25T05:52:09;9.60;67.70
64888;DHT22;51386;53.082;8.816;2023-04-25T05:54:36;9.60;67.80
64888;DHT22;51386;53.082;8.816;2023-04-25T05:57:04;9.60;68.10
64888;DHT22;51386;53.082;8.816;2023-04-25T05:59:31;9.60;68.60
64888;DHT22;51386;53.082;8.816;2023-04-25T06:01:58;9.60;69.00
64888;DHT22;51386;53.082;8.816;2023-04-25T06:04:25;9.60;69.10
64888;DHT22;51386;53.082;8.816;2023-04-25T06:06:53;9.60;68.80
64888;DHT22;51386;53.082;8.816;2023-04-25T06:09:20;9.70;68.90
64888;DHT22;51386;53.082;8.816;2023-04-25T06:11:47;9.80;68.80
64888;DHT22;51386;53.082;8.816;2023-04-25T06:14:15;9.80;68.20
64888;DHT22;51386;53.082;8.816;2023-04-25T06:16:42;9.90;68.00
64888;DHT22;51386;53.082;8.816;2023-04-25T06:19:09;9.90;68.00
64888;DHT22;51386;53.082;8.816;2023-04-25T06:21:36;9.90;67.40
64888;DHT22;51386;53.082;8.816;2023-04-25T06:24:03;10.00;66.10
64888;DHT22;51386;53.082;8.816;2023-04-25T06:26:31;10.00;65.60
64888;DHT22;51386;53.082;8.816;2023-04-25T06:28:58;10.00;65.70
64888;DHT22;51386;53.082;8.816;2023-04-25T06:31:26;10.00;65.60
64888;DHT22;51386;53.082;8.816;2023-04-25T06:33:53;10.10;64.90
64888;DHT22;51386;53.082;8.816;2023-04-25T06:36:21;10.10;65.10
64888;DHT22;51386;53.082;8.816;2023-04-25T06:38:54;10.10;64.90
64888;DHT22;51386;53.082;8.816;2023-04-25T06:41:21;10.20;64.90
64888;DHT22;51386;53.082;8.816;2023-04-25T06:43:48;10.20;64.20
64888;DHT22;51386;53.082;8.816;2023-04-25T06:46:15;10.30;64.50
64888;DHT22;51386;53.082;8.816;2023-04-25T06:48:43;10.30;63.00
64888;DHT22;51386;53.082;8.816;2023-04-25T06:51:11;10.40;61.70
64888;DHT22;51386;53.082;8.816;2023-04-25T06:53:39;10.50;61.80
64888;DHT22;51386;53.082;8.816;2023-04-25T06:56:07;10.60;60.80
64888;DHT22;51386;53.082;8.816;2023-04-25T06:58:34;10.80;61.10
64888;DHT22;51386;53.082;8.816;2023-04-25T07:01:01;10.90;60.70
64888;DHT22;51386;53.082;8.816;2023-04-25T07:03:28;11.00;59.50
64888;DHT22;51386;53.082;8.816;2023-04-25T07:05:57;11.00;58.30
64888;DHT22;51386;53.082;8.816;2023-04-25T07:08:24;11.10;59.00
64888;DHT22;51386;53.082;8.816;2023-04-25T07:10:51;11.20;58.60
64888;DHT22;51386;53.082;8.816;2023-04-25T07:13:18;11.20;58.50
64888;DHT22;51386;53.082;8.816;2023-04-25T07:15:45;11.30;58.50
64888;DHT22;51386;53.082;8.816;2023-04-25T07:18:14;11.40;58.40
64888;DHT22;51386;53.082;8.816;2023-04-25T07:20:41;11.50;58.50
64888;DHT22;51386;53.082;8.816;2023-04-25T07:23:09;11.50;58.30
64888;DHT22;51386;53.082;8.816;2023-04-25T07:25:36;11.60;57.90
64888;DHT22;51386;53.082;8.816;2023-04-25T07:28:03;11.70;58.10
64888;DHT22;51386;53.082;8.816;2023-04-25T07:30:30;11.80;57.30
64888;DHT22;51386;53.082;8.816;2023-04-25T07:32:57;11.90;57.50
64888;DHT22;51386;53.082;8.816;2023-04-25T07:35:24;12.00;56.70
64888;DHT22;51386;53.082;8.816;2023-04-25T07:37:51;12.20;55.40
64888;DHT22;51386;53.082;8.816;2023-04-25T07:40:19;12.50;55.60
64888;DHT22;51386;53.082;8.816;2023-04-25T07:42:46;13.00;55.00
64888;DHT22;51386;53.082;8.816;2023-04-25T07:45:13;13.50;54.30
64888;DHT22;51386;53.082;8.816;2023-04-25T07:47:40;14.10;54.10
64888;DHT22;51386;53.082;8.816;2023-04-25T07:50:08;14.70;52.70
64888;DHT22;51386;53.082;8.816;2023-04-25T07:52:36;15.40;51.10
64888;DHT22;51386;53.082;8.816;2023-04-25T07:55:04;16.00;46.30
64888;DHT22;51386;53.082;8.816;2023-04-25T07:57:33;16.50;45.00
64888;DHT22;51386;53.082;8.816;2023-04-25T08:00:00;17.10;43.00
64888;DHT22;51386;53.082;8.816;2023-04-25T08:02:27;17.60;41.60
64888;DHT22;51386;53.082;8.816;2023-04-25T08:04:55;17.90;40.00
64888;DHT22;51386;53.082;8.816;2023-04-25T08:07:22;18.00;39.30
64888;DHT22;51386;53.082;8.816;2023-04-25T08:09:49;18.00;38.80
64888;DHT22;51386;53.082;8.816;2023-04-25T08:12:16;17.70;37.90
64888;DHT22;51386;53.082;8.816;2023-04-25T08:14:44;17.30;38.70
64888;DHT22;51386;53.082;8.816;2023-04-25T08:17:13;16.80;38.10
64888;DHT22;51386;53.082;8.816;2023-04-25T08:19:43;16.30;39.00
64888;DHT22;51386;53.082;8.816;2023-04-25T08:22:10;15.90;40.00
64888;DHT22;51386;53.082;8.816;2023-04-25T08:24:37;15.50;41.70
64888;DHT22;51386;53.082;8.816;2023-04-25T08:27:05;15.10;43.30
64888;DHT22;51386;53.082;8.816;2023-04-25T08:29:34;14.70;46.70
64888;DHT22;51386;53.082;8.816;2023-04-25T08:32:02;14.40;49.10
64888;DHT22;51386;53.082;8.816;2023-04-25T08:34:29;14.00;49.70
64888;DHT22;51386;53.082;8.816;2023-04-25T08:36:56;13.70;49.60
64888;DHT22;51386;53.082;8.816;2023-04-25T08:39:23;13.40;48.50
64888;DHT22;51386;53.082;8.816;2023-04-25T08:41:51;13.20;48.10
64888;DHT22;51386;53.082;8.816;2023-04-25T08:44:19;12.90;48.70
64888;DHT22;51386;53.082;8.816;2023-04-25T08:46:47;12.80;49.30
64888;DHT22;51386;53.082;8.816;2023-04-25T08:49:18;12.60;49.50
64888;DHT22;51386;53.082;8.816;2023-04-25T08:51:46;12.50;49.30
64888;DHT22;51386;53.082;8.816;2023-04-25T08:54:14;12.50;50.00
64888;DHT22;51386;53.082;8.816;2023-04-25T08:57:02;12.50;49.60
64888;DHT22;51386;53.082;8.816;2023-04-25T08:59:32;12.50;50.50
64888;DHT22;51386;53.082;8.816;2023-04-25T09:02:01;12.60;50.00
64888;DHT22;51386;53.082;8.816;2023-04-25T09:04:31;12.70;49.80
64888;DHT22;51386;53.082;8.816;2023-04-25T09:06:58;13.00;49.10
64888;DHT22;51386;53.082;8.816;2023-04-25T09:09:25;13.40;48.50
64888;DHT22;51386;53.082;8.816;2023-04-25T09:11:54;14.10;48.90
64888;DHT22;51386;53.082;8.816;2023-04-25T09:14:22;14.90;48.00
64888;DHT22;51386;53.082;8.816;2023-04-25T09:17:00;15.80;43.70
64888;DHT22;51386;53.082;8.816;2023-04-25T09:19:31;16.50;40.40
64888;DHT22;51386;53.082;8.816;2023-04-25T09:22:07;17.00;40.20
64888;DHT22;51386;53.082;8.816;2023-04-25T09:24:37;17.30;40.40
64888;DHT22;51386;53.082;8.816;2023-04-25T09:27:10;17.40;38.60
64888;DHT22;51386;53.082;8.816;2023-04-25T09:29:42;17.50;38.80
64888;DHT22;51386;53.082;8.816;2023-04-25T09:32:17;17.50;38.20
64888;DHT22;51386;53.082;8.816;2023-04-25T09:34:48;17.20;38.10
64888;DHT22;51386;53.082;8.816;2023-04-25T09:37:18;16.70;37.40
64888;DHT22;51386;53.082;8.816;2023-04-25T09:39:47;16.50;38.70
64888;DHT22;51386;53.082;8.816;2023-04-25T09:42:16;16.00;40.10
64888;DHT22;51386;53.082;8.816;2023-04-25T09:44:44;15.80;42.50
64888;DHT22;51386;53.082;8.816;2023-04-25T09:47:14;15.40;45.80
64888;DHT22;51386;53.082;8.816;2023-04-25T09:49:43;15.20;46.50
64888;DHT22;51386;53.082;8.816;2023-04-25T09:52:16;15.20;46.60
64888;DHT22;51386;53.082;8.816;2023-04-25T09:54:44;15.30;46.60
64888;DHT22;51386;53.082;8.816;2023-04-25T09:57:13;15.30;46.90
64888;DHT22;51386;53.082;8.816;2023-04-25T09:59:46;15.60;47.30
64888;DHT22;51386;53.082;8.816;2023-04-25T10:02:16;15.90;46.20
64888;DHT22;51386;53.082;8.816;2023-04-25T10:04:49;16.40;44.80
64888;DHT22;51386;53.082;8.816;2023-04-25T10:07:22;16.90;43.30
64888;DHT22;51386;53.082;8.816;2023-04-25T10:10:01;17.50;37.90
64888;DHT22;51386;53.082;8.816;2023-04-25T10:12:36;18.30;36.20
64888;DHT22;51386;53.082;8.816;2023-04-25T10:15:04;19.00;36.00
64888;DHT22;51386;53.082;8.816;2023-04-25T10:17:32;19.50;33.10
64888;DHT22;51386;53.082;8.816;2023-04-25T10:20:02;20.20;32.20
64888;DHT22;51386;53.082;8.816;2023-04-25T10:22:36;20.80;30.30
64888;DHT22;51386;53.082;8.816;2023-04-25T10:25:06;21.20;29.10
64888;DHT22;51386;53.082;8.816;2023-04-25T10:27:35;21.30;29.00
64888;DHT22;51386;53.082;8.816;2023-04-25T10:30:04;21.10;28.30
64888;DHT22;51386;53.082;8.816;2023-04-25T10:32:35;20.80;28.50
64888;DHT22;51386;53.082;8.816;2023-04-25T10:35:13;20.40;29.60
64888;DHT22;51386;53.082;8.816;2023-04-25T10:37:59;19.80;31.10
64888;DHT22;51386;53.082;8.816;2023-04-25T10:40:29;19.30;32.40
64888;DHT22;51386;53.082;8.816;2023-04-25T10:43:36;18.70;32.90
64888;DHT22;51386;53.082;8.816;2023-04-25T10:46:16;18.40;34.30
64888;DHT22;51386;53.082;8.816;2023-04-25T10:48:49;18.20;35.00
64888;DHT22;51386;53.082;8.816;2023-04-25T10:51:19;18.10;35.80
64888;DHT22;51386;53.082;8.816;2023-04-25T10:53:57;18.30;36.00
64888;DHT22;51386;53.082;8.816;2023-04-25T10:56:26;18.30;35.30
64888;DHT22;51386;53.082;8.816;2023-04-25T10:59:07;18.40;35.80
64888;DHT22;51386;53.082;8.816;2023-04-25T11:01:39;18.70;36.00
64888;DHT22;51386;53.082;8.816;2023-04-25T11:04:20;18.90;35.40
64888;DHT22;51386;53.082;8.816;2023-04-25T11:07:00;18.90;35.00
64888;DHT22;51386;53.082;8.816;2023-04-25T11:09:35;19.00;35.00
64888;DHT22;51386;53.082;8.816;2023-04-25T11:12:08;19.10;34.80
64888;DHT22;51386;53.082;8.816;2023-04-25T11:14:40;19.30;35.10
64888;DHT22;51386;53.082;8.816;2023-04-25T11:17:08;19.40;35.00
64888;DHT22;51386;53.082;8.816;2023-04-25T11:19:37;19.60;35.30
64888;DHT22;51386;53.082;8.816;2023-04-25T11:22:05;19.90;34.50
64888;DHT22;51386;53.082;8.816;2023-04-25T11:24:35;20.30;34.00
64888;DHT22;51386;53.082;8.816;2023-04-25T11:27:03;20.50;33.80
64888;DHT22;51386;53.082;8.816;2023-04-25T11:29:34;20.60;34.60
64888;DHT22;51386;53.082;8.816;2023-04-25T11:32:07;20.20;35.80
64888;DHT22;51386;53.082;8.816;2023-04-25T11:34:35;19.70;38.50
64888;DHT22;51386;53.082;8.816;2023-04-25T11:37:05;19.00;39.20
64888;DHT22;51386;53.082;8.816;2023-04-25T11:39:33;18.20;41.10
64888;DHT22;51386;53.082;8.816;2023-04-25T11:42:01;17.60;42.70
64888;DHT22;51386;53.082;8.816;2023-04-25T11:44:33;16.90;44.10
64888;DHT22;51386;53.082;8.816;2023-04-25T11:47:00;16.30;43.80
64888;DHT22;51386;53.082;8.816;2023-04-25T11:49:30;15.80;44.50
64888;DHT22;51386;53.082;8.816;2023-04-25T11:51:59;15.30;45.00
64888;DHT22;51386;53.082;8.816;2023-04-25T11:54:26;15.00;46.60
64888;DHT22;51386;53.082;8.816;2023-04-25T11:56:53;14.80;48.80
64888;DHT22;51386;53.082;8.816;2023-04-25T11:59:24;14.50;47.50
64888;DHT22;51386;53.082;8.816;2023-04-25T12:01:52;14.50;48.80
64888;DHT22;51386;53.082;8.816;2023-04-25T12:04:22;14.50;49.00
64888;DHT22;51386;53.082;8.816;2023-04-25T12:06:51;14.50;48.70
64888;DHT22;51386;53.082;8.816;2023-04-25T12:09:21;14.70;49.30
64888;DHT22;51386;53.082;8.816;2023-04-25T12:11:56;14.70;48.30
64888;DHT22;51386;53.082;8.816;2023-04-25T12:14:31;14.80;48.20
64888;DHT22;51386;53.082;8.816;2023-04-25T12:17:01;14.90;48.00
64888;DHT22;51386;53.082;8.816;2023-04-25T12:19:33;14.90;47.70
64888;DHT22;51386;53.082;8.816;2023-04-25T12:22:02;15.00;49.00
64888;DHT22;51386;53.082;8.816;2023-04-25T12:24:33;15.10;46.30
64888;DHT22;51386;53.082;8.816;2023-04-25T12:27:06;15.20;45.40
64888;DHT22;51386;53.082;8.816;2023-04-25T12:29:35;15.30;44.70
64888;DHT22;51386;53.082;8.816;2023-04-25T12:32:15;15.30;44.40
64888;DHT22;51386;53.082;8.816;2023-04-25T12:34:43;15.30;44.70
64888;DHT22;51386;53.082;8.816;2023-04-25T12:37:11;15.30;43.30
64888;DHT22;51386;53.082;8.816;2023-04-25T12:39:38;15.40;43.50
64888;DHT22;51386;53.082;8.816;2023-04-25T12:42:06;15.60;44.10
64888;DHT22;51386;53.082;8.816;2023-04-25T12:44:35;15.80;43.40
64888;DHT22;51386;53.082;8.816;2023-04-25T12:47:03;16.00;41.60
64888;DHT22;51386;53.082;8.816;2023-04-25T12:49:31;16.30;41.00
64888;DHT22;51386;53.082;8.816;2023-04-25T12:51:59;16.40;40.00
64888;DHT22;51386;53.082;8.816;2023-04-25T12:54:26;16.60;39.80
64888;DHT22;51386;53.082;8.816;2023-04-25T12:56:53;16.80;39.80
64888;DHT22;51386;53.082;8.816;2023-04-25T12:59:21;17.10;39.90
64888;DHT22;51386;53.082;8.816;2023-04-25T13:01:49;17.50;39.70
64888;DHT22;51386;53.082;8.816;2023-04-25T13:04:16;17.70;38.80
64888;DHT22;51386;53.082;8.816;2023-04-25T13:06:44;18.00;38.50
64888;DHT22;51386;53.082;8.816;2023-04-25T13:09:12;17.90;37.10
64888;DHT22;51386;53.082;8.816;2023-04-25T13:11:39;17.70;37.20
64888;DHT22;51386;53.082;8.816;2023-04-25T13:14:08;17.40;40.30
64888;DHT22;51386;53.082;8.816;2023-04-25T13:16:38;17.10;42.40
64888;DHT22;51386;53.082;8.816;2023-04-25T13:19:05;16.70;43.00
64888;DHT22;51386;53.082;8.816;2023-04-25T13:21:34;16.30;43.60
64888;DHT22;51386;53.082;8.816;2023-04-25T13:24:01;16.00;44.20
64888;DHT22;51386;53.082;8.816;2023-04-25T13:26:29;15.90;42.60
64888;DHT22;51386;53.082;8.816;2023-04-25T13:28:57;16.00;43.50
64888;DHT22;51386;53.082;8.816;2023-04-25T13:31:24;16.30;43.20
64888;DHT22;51386;53.082;8.816;2023-04-25T13:33:51;16.60;41.10
64888;DHT22;51386;53.082;8.816;2023-04-25T13:36:19;16.80;40.00
64888;DHT22;51386;53.082;8.816;2023-04-25T13:38:46;17.00;38.10
64888;DHT22;51386;53.082;8.816;2023-04-25T13:41:15;17.40;38.70
64888;DHT22;51386;53.082;8.816;2023-04-25T13:43:47;17.70;37.40
64888;DHT22;51386;53.082;8.816;2023-04-25T13:46:15;17.80;36.30
64888;DHT22;51386;53.082;8.816;2023-04-25T13:49:01;18.00;36.40
64888;DHT22;51386;53.082;8.816;2023-04-25T13:51:38;18.20;34.10
64888;DHT22;51386;53.082;8.816;2023-04-25T13:54:05;18.50;34.80
64888;DHT22;51386;53.082;8.816;2023-04-25T13:56:32;18.80;34.20
64888;DHT22;51386;53.082;8.816;2023-04-25T13:59:00;19.10;32.10
64888;DHT22;51386;53.082;8.816;2023-04-25T14:01:27;19.30;31.50
64888;DHT22;51386;53.082;8.816;2023-04-25T14:03:57;19.60;30.90
64888;DHT22;51386;53.082;8.816;2023-04-25T14:06:24;19.70;30.50
64888;DHT22;51386;53.082;8.816;2023-04-25T14:08:52;19.50;31.40
64888;DHT22;51386;53.082;8.816;2023-04-25T14:11:19;19.40;31.90
64888;DHT22;51386;53.082;8.816;2023-04-25T14:13:46;19.20;31.90
64888;DHT22;51386;53.082;8.816;2023-04-25T14:16:16;19.00;32.70
64888;DHT22;51386;53.082;8.816;2023-04-25T14:18:43;18.70;32.90
64888;DHT22;51386;53.082;8.816;2023-04-25T14:21:10;18.50;33.70
64888;DHT22;51386;53.082;8.816;2023-04-25T14:23:37;18.30;32.80
64888;DHT22;51386;53.082;8.816;2023-04-25T14:26:07;18.10;33.30
64888;DHT22;51386;53.082;8.816;2023-04-25T14:28:33;17.90;32.60
64888;DHT22;51386;53.082;8.816;2023-04-25T14:31:00;17.60;32.50
64888;DHT22;51386;53.082;8.816;2023-04-25T14:33:29;17.40;33.30
64888;DHT22;51386;53.082;8.816;2023-04-25T14:35:57;17.00;34.30
64888;DHT22;51386;53.082;8.816;2023-04-25T14:38:24;16.60;36.90
64888;DHT22;51386;53.082;8.816;2023-04-25T14:40:52;16.30;38.50
64888;DHT22;51386;53.082;8.816;2023-04-25T14:43:20;16.00;39.70
64888;DHT22;51386;53.082;8.816;2023-04-25T14:45:47;15.60;40.50
64888;DHT22;51386;53.082;8.816;2023-04-25T14:48:17;15.40;41.60
64888;DHT22;51386;53.082;8.816;2023-04-25T14:50:47;15.10;42.60
64888;DHT22;51386;53.082;8.816;2023-04-25T14:53:15;14.80;43.90
64888;DHT22;51386;53.082;8.816;2023-04-25T14:55:42;14.60;44.40
64888;DHT22;51386;53.082;8.816;2023-04-25T14:58:09;14.50;44.30
64888;DHT22;51386;53.082;8.816;2023-04-25T15:00:36;14.40;44.30
64888;DHT22;51386;53.082;8.816;2023-04-25T15:03:04;14.20;44.00
64888;DHT22;51386;53.082;8.816;2023-04-25T15:05:32;14.30;44.00
64888;DHT22;51386;53.082;8.816;2023-04-25T15:08:02;14.30;44.70
64888;DHT22;51386;53.082;8.816;2023-04-25T15:10:30;14.50;43.40
64888;DHT22;51386;53.082;8.816;2023-04-25T15:12:57;14.40;42.10
64888;DHT22;51386;53.082;8.816;2023-04-25T15:15:24;14.50;42.60
64888;DHT22;51386;53.082;8.816;2023-04-25T15:17:53;14.50;42.50
64888;DHT22;51386;53.082;8.816;2023-04-25T15:20:25;14.50;42.60
64888;DHT22;51386;53.082;8.816;2023-04-25T15:22:52;14.40;43.10
64888;DHT22;51386;53.082;8.816;2023-04-25T15:25:21;14.40;43.70
64888;DHT22;51386;53.082;8.816;2023-04-25T15:27:48;14.30;44.20
64888;DHT22;51386;53.082;8.816;2023-04-25T15:30:16;14.30;45.30
64888;DHT22;51386;53.082;8.816;2023-04-25T15:32:44;14.30;46.30
64888;DHT22;51386;53.082;8.816;2023-04-25T15:35:13;14.40;48.50
64888;DHT22;51386;53.082;8.816;2023-04-25T15:37:41;14.60;47.10
64888;DHT22;51386;53.082;8.816;2023-04-25T15:40:10;14.70;46.70